Impacts METAR Board
IDs:

KDFW - Dallas-Ft Worth Intl, TX, US

Updated at: 0800 UTC 16 Oct 2018
Potential Impact None Slight Moderate High
Time 15/20Z 15/21Z 15/22Z 15/23Z 16/00Z 16/01Z 16/02Z 16/03Z 16/04Z 16/05Z 16/06Z 16/07Z 16/08Z
Temp43 44 43 44 45 45 45 46 46 45 44 45 45
Dewpt41 41 41 42 41 42 43 44 43 43 42 43 43
Altim30.26 30.26 30.24 30.24 30.18 30.26 30.26 30.27 30.28 30.27 30.23 30.24 30.23
VIS10 6 2 10 10 9 3 4 3 3 3 5 5
CIG12 14 14 16 28 19 14 14 19 13 9 9 9
CoverOVCOVCOVCOVCOVCOVCOVCOVCOVCOVCOVCOVCOVC
FltCatMVFRMVFRIFRMVFRMVFRMVFRMVFRMVFRMVFRMVFRIFRIFRIFR
WX-RA-RA BR-RA BR-RA-RA---RA BR-RA BR-RA BR-RA BRRA BRRA BRRA BR
WDir350350360350401010203020101020
WSpd14 14 16 14 18 13 14 11 15 13 14 11 13
WGst-- -- -- -- 26 -- 23 -- -- -- -- -- --
Raw hourly METARs
KDFW 151953Z 35014KT 10SM -RA OVC012 06/05 A3026 RMK AO2 RAB34 SLP247 P0000 T00610050
KDFW 152053Z 35014KT 6SM -RA BR OVC014 07/05 A3026 RMK AO2 SLP248 P0002 60002 T00670050 55014
KDFW 152153Z 36016KT 2SM -RA BR SCT010 BKN014 OVC028 06/05 A3024 RMK AO2 SFC VIS 5 SLP239 P0010 T00610050
KDFW 152304Z 35014KT 10SM -RA OVC016 07/06 A3024 RMK AO2 P0000 T00670056
KDFW 152353Z 04018G26KT 10SM -RA FEW016 OVC028 07/05 A3018 RMK AO2 PK WND 03026/2353 SLP220 P0000 60016 T00720050 10072 20056 58028
KDFW 160053Z 01013KT 9SM OVC019 07/06 A3026 RMK AO2 RAE36 SLP246 P0002 T00720056
KDFW 160153Z 01014G23KT 3SM -RA BR FEW008 BKN014 OVC020 07/06 A3026 RMK AO2 RAB0055 SLP245 P0001 T00720061
KDFW 160253Z 02011KT 4SM -RA BR FEW008 BKN014 OVC020 08/07 A3027 RMK AO2 SLP251 P0001 60004 T00780067 51031
KDFW 160353Z 03015KT 3SM -RA BR SCT010 OVC019 08/06 A3028 RMK AO2 SLP254 P0001 T00780061
KDFW 160453Z 02013KT 3SM -RA BR SCT009 BKN013 OVC028 07/06 A3027 RMK AO2 SLP249 P0001 T00720061
KDFW 160603Z 01014KT 3SM RA BR BKN009 BKN014 OVC032 07/06 A3023 RMK AO2 P0002 T00670056
KDFW 160653Z 01011KT 5SM RA BR BKN009 BKN014 OVC032 07/06 A3024 RMK AO2 SLP241 P0011 T00720061
KDFW 160753Z 02013KT 5SM RA BR BKN009 OVC014 07/06 A3023 RMK AO2 SLP236 P0012 T00720061



Page loaded:  08:06 UTC  |   01:06 AM Pacific  |   02:06 AM Mountain  |   03:06 AM Central  |   04:06 AM Eastern

 

ADVISORIES

FORECASTS

FORECASTS

OBSERVATIONS

USER TOOLS

ABOUT US